createdAt,value
2022-10-17T07:10:12.883Z,5.17
2022-10-17T07:11:15.347Z,6.33
2022-10-17T07:12:17.847Z,5.41
2022-10-17T07:13:20.358Z,5.92
2022-10-17T07:14:22.721Z,6.34
2022-10-17T07:15:25.249Z,5.89
2022-10-17T07:16:27.711Z,6.43
2022-10-17T07:17:30.398Z,5.24
2022-10-17T07:18:33.134Z,5.47
2022-10-17T07:19:35.508Z,4.71
2022-10-17T07:20:38.021Z,5.27
2022-10-17T07:21:40.441Z,5.00
2022-10-17T07:22:42.803Z,5.07
2022-10-17T07:23:45.228Z,4.93
2022-10-17T07:24:47.860Z,4.05
2022-10-17T07:25:50.338Z,4.35
2022-10-17T07:26:52.701Z,4.27
2022-10-17T07:27:55.176Z,4.59
2022-10-17T07:28:57.696Z,4.69
2022-10-17T07:30:00.406Z,4.17
2022-10-17T07:31:02.827Z,4.87
2022-10-17T07:32:05.198Z,4.63
2022-10-17T07:33:07.593Z,3.88
2022-10-17T07:34:10.027Z,4.08
2022-10-17T07:35:12.388Z,4.07
2022-10-17T07:36:14.888Z,4.72
2022-10-17T07:37:17.251Z,4.69
2022-10-17T07:38:21.134Z,3.90
2022-10-17T07:39:23.589Z,4.16
2022-10-17T07:40:25.974Z,4.91
2022-10-17T07:41:28.374Z,3.63
2022-10-17T07:42:30.893Z,5.27
2022-10-17T07:43:33.495Z,4.19
2022-10-17T07:44:35.753Z,4.59
2022-10-17T07:45:38.226Z,3.62
2022-10-17T07:46:40.640Z,4.07
2022-10-17T07:47:42.898Z,3.68
2022-10-17T07:48:45.278Z,3.67
2022-10-17T07:49:47.727Z,4.11
2022-10-17T07:50:50.100Z,4.07
2022-10-17T07:51:52.496Z,3.97
2022-10-17T07:52:54.961Z,3.89
2022-10-17T07:53:57.326Z,3.80
2022-10-17T07:54:59.695Z,5.26
2022-10-17T07:56:02.057Z,5.61
2022-10-17T07:57:04.458Z,9.99
2022-10-17T07:58:06.918Z,6.38
2022-10-17T07:59:09.717Z,6.56
2022-10-17T08:00:12.530Z,4.73
2022-10-17T08:01:15.809Z,4.30
2022-10-17T08:02:18.801Z,4.22
2022-10-17T08:03:21.212Z,4.98
2022-10-17T08:04:23.695Z,4.07
2022-10-17T08:05:26.122Z,3.27
2022-10-17T08:06:28.483Z,3.02
2022-10-17T08:07:30.955Z,3.60
2022-10-17T08:08:33.439Z,3.38
2022-10-17T08:09:35.837Z,4.33
2022-10-17T08:10:38.289Z,3.21
2022-10-17T08:11:40.649Z,2.85
2022-10-17T08:12:43.173Z,3.21
2022-10-17T08:13:45.536Z,3.66
2022-10-17T08:14:47.904Z,2.67
2022-10-17T08:15:50.275Z,3.51
2022-10-17T08:16:52.727Z,3.25
2022-10-17T08:17:55.126Z,2.89
2022-10-17T08:18:57.522Z,5.26
2022-10-17T08:19:59.949Z,8.01
2022-10-17T08:21:02.413Z,13.77
2022-10-17T08:22:04.877Z,12.63
2022-10-17T08:23:07.259Z,17.23
2022-10-17T08:24:09.631Z,10.04
2022-10-17T08:25:11.980Z,14.87
2022-10-17T08:26:14.441Z,27.39
2022-10-17T08:27:16.808Z,6.17
2022-10-17T08:28:19.231Z,8.30
2022-10-17T08:29:21.588Z,6.02
2022-10-17T08:30:23.943Z,7.16
2022-10-17T08:31:26.308Z,5.90
2022-10-17T08:32:29.100Z,17.49
2022-10-17T08:33:31.884Z,7.91
2022-10-17T08:34:34.254Z,18.48
2022-10-17T08:35:36.608Z,29.56
2022-10-17T08:36:38.974Z,9.25
2022-10-17T08:37:41.345Z,5.91
2022-10-17T08:38:43.959Z,6.92
2022-10-17T08:39:46.599Z,7.76
2022-10-17T08:40:49.078Z,43.27
2022-10-17T08:41:51.527Z,35.81
2022-10-17T08:42:53.883Z,33.43
2022-10-17T08:43:56.278Z,6.30
2022-10-17T08:44:58.637Z,4.86
2022-10-17T08:46:01.011Z,3.94
2022-10-17T08:47:04.832Z,3.83
2022-10-17T08:48:07.253Z,3.97
2022-10-17T08:49:12.153Z,6.34
2022-10-17T08:50:14.013Z,9.61
2022-10-17T08:51:16.373Z,4.02
2022-10-17T08:52:18.736Z,8.89
2022-10-17T08:53:21.097Z,33.67
2022-10-17T08:54:23.586Z,4.95
2022-10-17T08:55:26.056Z,10.31
2022-10-17T08:56:47.656Z,19.75
2022-10-17T08:57:33.229Z,35.32
2022-10-17T08:58:35.878Z,15.11
2022-10-17T08:59:38.335Z,4.91
2022-10-17T09:00:40.763Z,3.99
2022-10-17T09:01:43.125Z,4.06
2022-10-17T09:02:45.520Z,3.49
2022-10-17T09:03:47.952Z,3.51
2022-10-17T09:04:50.493Z,4.18
2022-10-17T09:05:52.938Z,14.91
2022-10-17T09:06:55.305Z,22.73
2022-10-17T09:07:57.773Z,5.85
2022-10-17T09:09:00.225Z,12.71
2022-10-17T09:10:02.714Z,5.44
2022-10-17T09:11:05.068Z,4.16
2022-10-17T09:12:07.324Z,3.69
2022-10-17T09:13:09.690Z,3.97
2022-10-17T09:14:12.046Z,3.85
2022-10-17T09:15:14.714Z,3.49
2022-10-17T09:16:17.275Z,3.93
2022-10-17T09:17:19.634Z,3.76
2022-10-17T09:18:22.237Z,4.15
2022-10-17T09:19:24.961Z,4.58
2022-10-17T09:20:27.336Z,4.89
2022-10-17T09:21:29.699Z,4.73
2022-10-17T09:22:32.361Z,4.69
2022-10-17T09:23:36.186Z,9.74
2022-10-17T09:24:38.986Z,7.09
2022-10-17T09:25:41.258Z,5.57
2022-10-17T09:26:43.615Z,5.51
2022-10-17T09:27:45.975Z,5.07
2022-10-17T09:28:48.348Z,8.55
2022-10-17T09:29:50.777Z,9.69
2022-10-17T09:30:53.180Z,5.22
2022-10-17T09:31:55.439Z,4.75
2022-10-17T09:32:57.781Z,5.71
2022-10-17T09:34:00.142Z,11.67
2022-10-17T09:35:02.396Z,20.48
2022-10-17T09:36:04.868Z,13.40
2022-10-17T09:37:07.313Z,4.57
2022-10-17T09:38:09.697Z,3.55
2022-10-17T09:39:12.138Z,27.65
2022-10-17T09:40:14.589Z,10.74
2022-10-17T09:41:43.082Z,29.11
2022-10-17T09:42:21.258Z,12.38
2022-10-17T09:43:23.612Z,5.63
2022-10-17T09:44:25.871Z,4.73
2022-10-17T09:45:28.320Z,3.91
2022-10-17T09:46:30.700Z,4.58
2022-10-17T09:47:33.356Z,4.32
2022-10-17T09:48:35.698Z,4.55
2022-10-17T09:49:38.038Z,3.61
2022-10-17T09:50:40.413Z,3.73
2022-10-17T09:51:42.894Z,5.11
2022-10-17T09:52:45.445Z,4.47
2022-10-17T09:53:47.811Z,4.85
2022-10-17T09:54:50.157Z,4.49
2022-10-17T09:55:52.498Z,4.23
2022-10-17T09:56:54.883Z,4.13
2022-10-17T09:57:57.136Z,4.25
2022-10-17T09:58:59.491Z,4.65
2022-10-17T10:00:01.966Z,4.81
2022-10-17T10:01:04.608Z,4.57
2022-10-17T10:02:07.067Z,4.31
2022-10-17T10:03:09.427Z,4.53
2022-10-17T10:04:11.764Z,4.61
2022-10-17T10:05:14.135Z,4.12
2022-10-17T10:06:16.483Z,3.86
2022-10-17T10:07:18.873Z,3.63
2022-10-17T10:08:21.232Z,4.44
2022-10-17T10:09:23.594Z,4.23
2022-10-17T10:10:27.800Z,4.02
2022-10-17T10:11:30.303Z,4.49
2022-10-17T10:12:32.916Z,4.47
2022-10-17T10:13:35.756Z,4.32
2022-10-17T10:14:38.104Z,4.03
2022-10-17T10:15:40.453Z,10.47
2022-10-17T10:16:42.799Z,7.02
2022-10-17T10:17:46.567Z,5.46
2022-10-17T10:18:50.868Z,3.85
2022-10-17T10:19:53.194Z,4.44
2022-10-17T10:20:55.545Z,4.01
2022-10-17T10:21:57.887Z,4.01
2022-10-17T10:23:00.278Z,3.75
2022-10-17T10:24:02.626Z,4.63
2022-10-17T10:25:04.971Z,4.21
2022-10-17T10:26:07.324Z,6.85
2022-10-17T10:27:09.766Z,3.18
2022-10-17T10:28:12.147Z,2.75
2022-10-17T10:29:14.496Z,3.08
2022-10-17T10:30:16.837Z,3.99
2022-10-17T10:31:19.467Z,4.07
2022-10-17T10:32:21.849Z,3.22
2022-10-17T10:33:24.242Z,3.17
2022-10-17T10:34:26.600Z,2.90
2022-10-17T10:35:28.957Z,2.81
2022-10-17T10:36:31.498Z,3.73
2022-10-17T10:37:34.083Z,3.63
2022-10-17T10:38:36.548Z,4.43
2022-10-17T10:39:38.899Z,5.03
2022-10-17T10:40:41.249Z,3.21
2022-10-17T10:41:43.775Z,3.67
2022-10-17T10:42:46.138Z,4.23
2022-10-17T10:43:48.508Z,4.20
2022-10-17T10:44:50.861Z,3.75
2022-10-17T10:45:53.309Z,3.82
2022-10-17T10:46:55.745Z,3.53
2022-10-17T10:47:58.110Z,3.55
2022-10-17T10:49:00.502Z,3.40
2022-10-17T10:50:02.936Z,3.86
2022-10-17T10:51:05.300Z,3.58
2022-10-17T10:52:07.646Z,3.12
2022-10-17T10:53:10.044Z,3.27
2022-10-17T10:54:12.504Z,4.51
2022-10-17T10:55:14.851Z,3.29
2022-10-17T10:56:17.197Z,2.70
2022-10-17T10:57:19.547Z,2.43
2022-10-17T10:58:21.891Z,2.93
2022-10-17T10:59:24.296Z,2.77
2022-10-17T11:00:26.702Z,2.86
2022-10-17T11:01:29.294Z,3.73
2022-10-17T11:02:31.647Z,3.75
2022-10-17T11:03:34.042Z,7.89
2022-10-17T11:04:36.501Z,4.87
2022-10-17T11:05:38.844Z,2.72
2022-10-17T11:06:41.196Z,5.35
2022-10-17T11:07:43.540Z,4.99
2022-10-17T11:08:45.892Z,3.21
2022-10-17T11:09:48.275Z,3.33
2022-10-17T11:10:50.625Z,2.32
2022-10-17T11:11:52.977Z,2.59
2022-10-17T11:12:55.325Z,2.40
2022-10-17T11:13:57.678Z,2.32
2022-10-17T11:15:00.152Z,2.24
2022-10-17T11:16:05.065Z,2.51
2022-10-17T11:17:07.421Z,2.67
2022-10-17T11:18:09.683Z,3.13
2022-10-17T11:19:12.041Z,3.05
2022-10-17T11:20:14.642Z,3.38
2022-10-17T11:21:17.005Z,2.73
2022-10-17T11:22:19.456Z,3.11
2022-10-17T11:23:21.800Z,3.41
2022-10-17T11:24:24.151Z,3.11
2022-10-17T11:25:26.553Z,3.30
2022-10-17T11:26:28.902Z,3.35
2022-10-17T11:27:31.242Z,3.00
2022-10-17T11:28:33.630Z,3.13
2022-10-17T11:29:36.033Z,3.13
2022-10-17T11:30:38.465Z,2.81
2022-10-17T11:31:40.868Z,4.79
2022-10-17T11:32:43.214Z,3.97
2022-10-17T11:33:45.869Z,3.00
2022-10-17T11:34:48.126Z,3.37
2022-10-17T11:35:50.521Z,3.11
2022-10-17T11:36:52.985Z,3.13
2022-10-17T11:37:55.332Z,3.03
2022-10-17T11:38:57.998Z,4.37
2022-10-17T11:40:00.445Z,3.82
2022-10-17T11:41:03.446Z,3.08
2022-10-17T11:42:05.799Z,3.13
2022-10-17T11:43:08.168Z,2.95
2022-10-17T11:44:10.619Z,2.61
2022-10-17T11:45:12.973Z,2.53
2022-10-17T11:46:15.868Z,2.58
2022-10-17T11:47:18.383Z,3.21
2022-10-17T11:48:21.179Z,2.55
2022-10-17T11:49:23.760Z,2.98
2022-10-17T11:52:55.372Z,3.16
2022-10-17T11:53:39.041Z,2.60
2022-10-17T11:54:41.416Z,2.81
2022-10-17T11:55:44.775Z,3.16
2022-10-17T11:56:47.170Z,2.94
2022-10-17T11:57:49.745Z,3.19
2022-10-17T11:58:52.393Z,2.94
2022-10-17T11:59:54.786Z,2.87
2022-10-17T12:00:57.218Z,3.21
2022-10-17T12:01:59.689Z,3.10
2022-10-17T12:03:02.069Z,2.71
2022-10-17T12:04:04.517Z,2.50
2022-10-17T12:05:07.194Z,2.98
2022-10-17T12:06:11.117Z,2.89
2022-10-17T12:07:13.496Z,2.54
2022-10-17T12:08:15.948Z,2.59
2022-10-17T12:09:18.299Z,3.48
2022-10-17T12:10:20.655Z,2.73
2022-10-17T12:11:23.003Z,2.70
2022-10-17T12:12:25.401Z,2.70
2022-10-17T12:13:27.750Z,3.06
2022-10-17T12:14:30.142Z,3.75
2022-10-17T12:15:32.965Z,3.66
2022-10-17T12:16:35.380Z,4.13
2022-10-17T12:17:37.853Z,3.16
2022-10-17T12:18:40.106Z,3.48
2022-10-17T12:19:42.462Z,3.07
2022-10-17T12:20:44.913Z,3.19
2022-10-17T12:21:47.265Z,3.09
2022-10-17T12:22:49.981Z,2.87
2022-10-17T12:23:52.334Z,3.01
2022-10-17T12:24:54.688Z,2.80
2022-10-17T12:25:59.768Z,3.28
2022-10-17T12:27:01.313Z,2.41
2022-10-17T12:28:03.811Z,3.00
2022-10-17T12:29:06.183Z,2.57
2022-10-17T12:30:08.815Z,2.43
2022-10-17T12:31:11.073Z,3.28
2022-10-17T12:32:13.426Z,4.22
2022-10-17T12:33:15.824Z,5.08
2022-10-17T12:34:18.183Z,3.32
2022-10-17T12:35:20.528Z,3.36
2022-10-17T12:36:23.106Z,3.33
2022-10-17T12:37:25.485Z,2.48
2022-10-17T12:38:27.802Z,2.87
2022-10-17T12:39:30.063Z,3.00
2022-10-17T12:40:32.507Z,2.75
2022-10-17T12:41:34.770Z,2.71
2022-10-17T12:42:37.028Z,2.59
2022-10-17T12:43:42.722Z,2.49
2022-10-17T12:44:45.715Z,2.81
2022-10-17T12:45:47.859Z,2.83
2022-10-17T12:46:50.331Z,3.51
2022-10-17T12:47:52.764Z,3.47
2022-10-17T12:48:55.975Z,2.63
2022-10-17T12:49:58.321Z,3.52
2022-10-17T12:51:17.756Z,3.31
2022-10-17T12:52:04.979Z,2.91
2022-10-17T12:53:08.399Z,2.69
2022-10-17T12:54:11.479Z,2.91
2022-10-17T12:55:15.654Z,4.55
2022-10-17T12:56:18.097Z,3.63
2022-10-17T12:57:20.460Z,3.76
2022-10-17T12:58:23.652Z,2.94
2022-10-17T12:59:26.067Z,2.85
2022-10-17T13:00:28.558Z,2.36
2022-10-17T13:01:32.346Z,3.15
2022-10-17T13:02:35.548Z,2.49
2022-10-17T13:03:37.894Z,3.03
2022-10-17T13:04:40.277Z,2.69
2022-10-17T13:05:43.252Z,2.69
2022-10-17T13:06:45.717Z,2.75
2022-10-17T13:07:48.253Z,3.04
2022-10-17T13:08:54.543Z,3.09
2022-10-17T13:09:55.066Z,3.04
2022-10-17T13:10:57.442Z,2.96
2022-10-17T13:11:59.794Z,2.85
2022-10-17T13:13:02.264Z,3.15
2022-10-17T13:14:04.711Z,2.85
2022-10-17T13:15:07.106Z,2.95
2022-10-17T13:16:09.482Z,3.01
2022-10-17T13:17:11.848Z,2.87
2022-10-17T13:18:14.205Z,3.07
2022-10-17T13:19:16.652Z,3.15
2022-10-17T13:20:23.525Z,2.73
2022-10-17T13:21:27.715Z,3.69
2022-10-17T13:22:30.613Z,2.49
2022-10-17T13:23:33.922Z,2.77
2022-10-17T13:24:36.275Z,3.55
2022-10-17T13:25:39.620Z,2.98
2022-10-17T13:26:42.229Z,3.10
2022-10-17T13:27:44.584Z,2.77
2022-10-17T13:28:47.029Z,3.75
2022-10-17T13:29:49.583Z,3.65
2022-10-17T13:30:53.692Z,2.79
2022-10-17T13:31:56.251Z,3.00
2022-10-17T13:32:58.624Z,4.29
2022-10-17T13:34:01.080Z,3.43
2022-10-17T13:35:03.457Z,4.93
2022-10-17T13:36:05.860Z,5.83
2022-10-17T13:37:08.225Z,4.57
2022-10-17T13:38:10.810Z,3.28
2022-10-17T13:39:16.882Z,4.75
2022-10-17T13:40:40.789Z,3.78
2022-10-17T13:41:35.432Z,4.81
2022-10-17T13:42:26.217Z,5.45
2022-10-17T13:43:28.920Z,3.12
2022-10-17T13:44:31.272Z,6.20
2022-10-17T13:45:33.688Z,3.07
2022-10-17T13:46:38.377Z,6.09
2022-10-17T13:47:40.428Z,4.31
2022-10-17T13:48:43.148Z,3.55
2022-10-17T13:49:45.692Z,3.19
2022-10-17T13:50:48.160Z,3.29
2022-10-17T13:51:50.628Z,3.89
2022-10-17T13:52:52.987Z,4.59
2022-10-17T13:53:55.343Z,3.49
2022-10-17T13:54:57.724Z,3.23
2022-10-17T13:56:22.880Z,2.92
2022-10-17T13:57:04.492Z,3.16
2022-10-17T13:58:06.946Z,3.51
2022-10-17T13:59:09.303Z,3.05
2022-10-17T14:00:12.502Z,3.78
2022-10-17T14:01:15.205Z,4.20
2022-10-17T14:02:17.835Z,7.10
2022-10-17T14:03:20.200Z,5.31
2022-10-17T14:04:22.650Z,5.14
2022-10-17T14:05:25.021Z,4.57
2022-10-17T14:06:27.471Z,4.71
2022-10-17T14:07:41.559Z,5.14
2022-10-17T14:08:34.151Z,5.56
2022-10-17T14:09:36.623Z,5.44
2022-10-17T14:10:39.079Z,7.38
2022-10-17T14:11:41.441Z,5.45
2022-10-17T14:12:45.605Z,5.58
2022-10-17T14:13:48.206Z,5.96
2022-10-17T14:15:54.876Z,6.59
2022-10-17T14:16:57.330Z,11.27
2022-10-17T14:18:01.486Z,9.65
2022-10-17T14:19:03.978Z,9.29
2022-10-17T14:20:34.476Z,9.21
2022-10-17T14:22:15.185Z,9.85
2022-10-17T14:23:22.749Z,10.35
2022-10-17T14:24:21.875Z,9.64
2022-10-17T14:25:24.288Z,11.97
2022-10-17T14:26:26.771Z,10.26
2022-10-17T14:27:29.636Z,10.68
2022-10-17T14:28:32.409Z,10.18
2022-10-17T14:29:34.924Z,10.45
2022-10-17T14:30:56.891Z,10.46
2022-10-17T14:31:41.680Z,10.91
2022-10-17T14:32:44.177Z,10.62
2022-10-17T14:33:50.572Z,10.17
2022-10-17T14:34:50.968Z,10.64
2022-10-17T14:35:53.323Z,10.09
2022-10-17T14:36:55.772Z,11.49
2022-10-17T14:37:58.141Z,11.02
2022-10-17T14:39:01.777Z,11.15
2022-10-17T14:40:04.454Z,11.66
2022-10-17T14:41:40.797Z,10.25
2022-10-17T14:42:11.190Z,11.16
2022-10-17T14:43:13.560Z,11.53
2022-10-17T14:44:16.128Z,10.39
2022-10-17T14:45:23.406Z,10.15
2022-10-17T14:46:22.881Z,10.22
2022-10-17T14:47:52.010Z,11.21
2022-10-17T14:48:29.634Z,10.59
2022-10-17T14:49:32.052Z,11.01
2022-10-17T14:50:34.582Z,11.50
2022-10-17T14:51:50.174Z,12.32
2022-10-17T14:52:41.464Z,10.21
2022-10-17T14:53:43.930Z,10.23
2022-10-17T14:54:46.350Z,13.67
2022-10-17T14:55:48.813Z,11.58
2022-10-17T14:56:51.277Z,11.95
2022-10-17T14:57:53.640Z,12.79
2022-10-17T14:58:56.013Z,11.56
2022-10-17T14:59:58.489Z,11.71
2022-10-17T15:02:10.508Z,15.63
2022-10-17T15:03:12.895Z,15.20
2022-10-17T15:04:15.347Z,12.56
2022-10-17T15:05:17.797Z,13.26
2022-10-17T15:06:20.366Z,14.89
2022-10-17T15:07:22.917Z,15.74
2022-10-17T15:08:25.399Z,15.43
2022-10-17T15:09:27.862Z,14.33
2022-10-17T15:10:30.353Z,14.58
2022-10-17T15:11:32.732Z,15.80
2022-10-17T15:12:35.206Z,16.36
2022-10-17T15:13:42.140Z,16.31
2022-10-17T15:14:41.999Z,14.05
2022-10-17T15:15:44.495Z,13.43
2022-10-17T15:16:47.008Z,14.94
2022-10-17T15:17:49.418Z,15.62
2022-10-17T15:18:51.847Z,14.64
2022-10-17T15:19:54.210Z,14.85
2022-10-17T15:21:05.092Z,15.05
2022-10-17T15:22:00.926Z,15.39
2022-10-17T15:23:03.398Z,15.59
2022-10-17T15:24:05.934Z,13.71
2022-10-17T15:25:08.395Z,14.53
2022-10-17T15:26:11.125Z,16.77
2022-10-17T15:27:13.665Z,17.17
2022-10-17T15:28:16.134Z,18.51
2022-10-17T15:29:18.531Z,25.75
2022-10-17T15:30:21.787Z,40.93
2022-10-17T15:31:24.407Z,36.11
2022-10-17T15:32:26.777Z,31.44
2022-10-17T15:33:29.139Z,30.59
2022-10-17T15:34:31.503Z,28.77
2022-10-17T15:35:33.880Z,31.03
2022-10-17T15:36:36.383Z,28.90
2022-10-17T15:37:38.863Z,32.03
2022-10-17T15:38:41.231Z,38.25
2022-10-17T15:39:43.594Z,56.18
2022-10-17T15:40:46.056Z,65.59
2022-10-17T15:41:48.619Z,66.98
2022-10-17T15:42:50.996Z,62.63
2022-10-17T15:43:53.472Z,51.02
2022-10-17T15:44:55.951Z,48.40
2022-10-17T15:45:58.374Z,45.67
2022-10-17T15:47:00.824Z,37.78
2022-10-17T15:48:03.265Z,38.23
2022-10-17T15:49:05.638Z,36.64
2022-10-17T15:50:08.423Z,44.14
2022-10-17T15:51:10.917Z,74.53
2022-10-17T15:52:13.416Z,122.67
2022-10-17T15:53:15.896Z,112.24
2022-10-17T15:54:18.302Z,95.54
2022-10-17T15:55:21.712Z,74.23
2022-10-17T15:56:24.252Z,72.59
2022-10-17T15:57:26.721Z,57.79
2022-10-17T15:58:29.210Z,54.73
2022-10-17T15:59:31.661Z,42.23
2022-10-17T16:00:34.180Z,40.26
2022-10-17T16:01:36.604Z,35.93
2022-10-17T16:02:39.098Z,32.89
2022-10-17T16:03:41.462Z,64.50
2022-10-17T16:04:43.931Z,62.11
2022-10-17T16:05:46.434Z,99.76
2022-10-17T16:06:48.930Z,101.05
2022-10-17T16:07:51.352Z,108.57
2022-10-17T16:08:53.811Z,84.52
2022-10-17T16:09:56.276Z,69.69
2022-10-17T16:10:58.664Z,88.47
2022-10-17T16:12:01.018Z,92.17
2022-10-17T16:13:03.422Z,145.99
2022-10-17T16:14:05.954Z,121.64
2022-10-17T16:15:08.357Z,121.11
2022-10-17T16:16:10.993Z,118.64
2022-10-17T16:17:13.709Z,137.03
2022-10-17T16:18:16.749Z,125.68
2022-10-17T16:19:19.352Z,133.31
2022-10-17T16:20:21.812Z,126.08
2022-10-17T16:21:24.294Z,102.63
2022-10-17T16:22:26.861Z,109.58
2022-10-17T16:23:29.683Z,103.21
2022-10-17T16:24:32.187Z,104.11
2022-10-17T16:25:34.629Z,113.85
2022-10-17T16:26:37.126Z,110.86
2022-10-17T16:27:39.564Z,107.79
2022-10-17T16:28:46.018Z,120.16
2022-10-17T16:29:46.361Z,90.11
2022-10-17T16:30:48.720Z,64.05
2022-10-17T16:31:51.098Z,51.01
2022-10-17T16:32:53.671Z,48.63
2022-10-17T16:33:56.184Z,41.65
2022-10-17T16:34:58.674Z,37.19
2022-10-17T16:36:01.062Z,50.21
2022-10-17T16:37:03.426Z,35.09
2022-10-17T16:38:05.937Z,31.63
2022-10-17T16:39:08.448Z,39.85
2022-10-17T16:40:11.422Z,44.17
2022-10-17T16:41:13.917Z,41.76
2022-10-17T16:42:16.464Z,38.46
2022-10-17T16:43:18.892Z,42.36
2022-10-17T16:44:21.345Z,44.95
2022-10-17T16:45:23.710Z,36.93
2022-10-17T16:46:26.175Z,38.70
2022-10-17T16:47:28.626Z,38.25
2022-10-17T16:48:31.099Z,39.79
2022-10-17T16:49:34.355Z,34.83
2022-10-17T16:50:36.823Z,43.39
2022-10-17T16:51:39.379Z,30.01
2022-10-17T16:52:41.842Z,26.75
2022-10-17T16:53:44.560Z,22.62
2022-10-17T16:54:47.241Z,22.09
2022-10-17T16:55:49.599Z,21.75
2022-10-17T16:56:51.962Z,21.13
2022-10-17T16:57:54.341Z,23.85
2022-10-17T16:58:56.798Z,24.44
2022-10-17T16:59:59.237Z,24.53
2022-10-17T17:01:01.806Z,21.84
2022-10-17T17:02:04.283Z,21.03
2022-10-17T17:03:06.870Z,24.02
2022-10-17T17:04:09.315Z,25.36
2022-10-17T17:05:11.835Z,24.49
2022-10-17T17:06:14.775Z,23.19
2022-10-17T17:07:17.474Z,22.47
2022-10-17T17:08:19.929Z,25.86
2022-10-17T17:09:22.415Z,22.07
2022-10-17T17:10:24.812Z,25.53
2022-10-17T17:11:27.292Z,22.80
2022-10-17T17:12:29.992Z,20.97
2022-10-17T17:13:32.383Z,19.05
2022-10-17T17:14:34.815Z,17.31
2022-10-17T17:15:37.237Z,19.67
2022-10-17T17:16:39.678Z,21.75
2022-10-17T17:17:51.262Z,28.95
2022-10-17T17:18:46.577Z,35.34
2022-10-17T17:19:48.938Z,34.82
2022-10-17T17:20:52.646Z,35.84
2022-10-17T17:21:55.406Z,34.45
2022-10-17T17:23:00.022Z,32.74
2022-10-17T17:24:02.428Z,33.52
2022-10-17T17:25:04.788Z,31.83
2022-10-17T17:26:07.286Z,33.58
2022-10-17T17:27:11.362Z,34.52
2022-10-17T17:28:13.987Z,33.93
2022-10-17T17:29:16.501Z,32.51
2022-10-17T17:30:19.310Z,34.74
2022-10-17T17:31:21.897Z,36.52
2022-10-17T17:32:24.256Z,33.01
2022-10-17T17:33:26.617Z,34.20
2022-10-17T17:34:28.997Z,35.98
2022-10-17T17:35:31.452Z,36.38
2022-10-17T17:36:33.852Z,32.01
2022-10-17T17:37:36.257Z,31.61
2022-10-17T17:38:38.713Z,32.66
2022-10-17T17:39:41.097Z,30.67
2022-10-17T17:40:46.888Z,31.13
2022-10-17T17:41:47.962Z,30.91
2022-10-17T17:42:50.580Z,30.84
2022-10-17T17:43:53.336Z,30.53
2022-10-17T17:44:55.695Z,27.41
2022-10-17T17:45:58.148Z,28.23
2022-10-17T17:47:00.573Z,29.85
2022-10-17T17:48:03.060Z,27.01
2022-10-17T17:49:05.682Z,27.59
2022-10-17T17:50:08.433Z,28.64
2022-10-17T17:51:10.881Z,24.80
2022-10-17T17:52:13.272Z,21.08
2022-10-17T17:53:15.721Z,20.76
2022-10-17T17:54:18.088Z,17.99
2022-10-17T17:55:20.445Z,15.01
2022-10-17T17:56:22.811Z,13.05
2022-10-17T17:57:25.254Z,12.81
2022-10-17T17:58:27.700Z,11.59
2022-10-17T17:59:30.148Z,8.40
2022-10-17T18:00:32.504Z,10.94
2022-10-17T18:01:34.931Z,10.85
2022-10-17T18:02:40.766Z,7.77
2022-10-17T18:03:41.959Z,7.07
2022-10-17T18:04:44.320Z,6.57
2022-10-17T18:05:46.770Z,6.43
2022-10-17T18:06:49.128Z,8.42
2022-10-17T18:07:51.558Z,8.09
2022-10-17T18:08:54.041Z,7.71
2022-10-17T18:09:56.466Z,7.73
2022-10-17T18:10:58.973Z,7.79
2022-10-17T18:12:01.350Z,7.67
2022-10-17T18:13:03.749Z,7.17
2022-10-17T18:14:06.100Z,7.57
2022-10-17T18:15:08.460Z,7.34
2022-10-17T18:16:11.423Z,9.06
2022-10-17T18:17:13.795Z,9.28
2022-10-17T18:18:16.290Z,10.31
2022-10-17T18:19:18.765Z,10.70
2022-10-17T18:20:21.185Z,9.67
2022-10-17T18:21:23.536Z,11.61
2022-10-17T18:22:25.910Z,13.45
2022-10-17T18:23:28.413Z,13.70
2022-10-17T18:24:30.860Z,15.78
2022-10-17T18:25:33.221Z,17.29
2022-10-17T18:26:35.575Z,16.91
2022-10-17T18:27:37.939Z,17.77
2022-10-17T18:29:42.712Z,19.28
2022-10-17T18:30:45.187Z,20.28
2022-10-17T18:31:47.541Z,21.40
2022-10-17T18:32:49.907Z,20.79
2022-10-17T18:33:52.326Z,19.99
2022-10-17T18:34:54.774Z,19.48
2022-10-17T18:35:58.402Z,20.12
2022-10-17T18:37:01.128Z,20.31
2022-10-17T18:38:03.501Z,18.86
2022-10-17T18:39:05.912Z,19.74
2022-10-17T18:40:08.772Z,19.14
2022-10-17T18:41:11.134Z,18.83
2022-10-17T18:42:13.495Z,19.21
2022-10-17T18:43:15.856Z,20.33
2022-10-17T18:44:18.248Z,19.11
2022-10-17T18:45:20.602Z,21.05
2022-10-17T18:46:22.990Z,18.93
2022-10-17T18:47:25.436Z,19.35
2022-10-17T18:48:27.788Z,19.07
2022-10-17T18:49:30.191Z,19.23
2022-10-17T18:50:32.540Z,18.83
2022-10-17T18:51:34.900Z,20.73
2022-10-17T18:52:37.280Z,20.31
2022-10-17T18:53:39.741Z,21.11
2022-10-17T18:54:42.217Z,19.57
2022-10-17T18:56:46.942Z,23.23
2022-10-17T18:57:49.300Z,22.97
2022-10-17T18:58:51.657Z,23.49
2022-10-17T18:59:54.058Z,25.22
2022-10-17T19:00:56.508Z,24.56
2022-10-17T19:01:58.923Z,22.56
2022-10-17T19:03:01.632Z,22.29
2022-10-17T19:04:03.993Z,21.48
2022-10-17T19:05:06.395Z,21.77
2022-10-17T19:06:09.058Z,23.36
2022-10-17T19:07:11.415Z,22.32
2022-10-17T19:08:13.776Z,22.57
2022-10-17T19:09:16.150Z,20.21
2022-10-17T19:10:18.839Z,21.63
2022-10-17T19:11:21.193Z,21.61
2022-10-17T19:12:23.550Z,21.67
2022-10-17T19:13:25.915Z,21.61
2022-10-17T19:14:28.267Z,22.38
2022-10-17T19:15:30.661Z,20.95
2022-10-17T19:16:33.025Z,19.43
2022-10-17T19:17:35.387Z,20.29
2022-10-17T19:18:37.746Z,20.07
2022-10-17T19:19:40.099Z,18.94
2022-10-17T19:20:42.494Z,19.85
2022-10-17T19:21:44.946Z,19.70
2022-10-17T19:22:47.369Z,20.54
2022-10-17T19:23:49.855Z,20.33
2022-10-17T19:24:52.213Z,24.82
2022-10-17T19:25:57.012Z,22.13
2022-10-17T19:26:58.876Z,19.81
2022-10-17T19:28:01.245Z,18.71
2022-10-17T19:29:03.691Z,20.76
2022-10-17T19:30:06.471Z,22.21
2022-10-17T19:31:08.858Z,22.51
2022-10-17T19:32:15.663Z,21.26
2022-10-17T19:33:15.555Z,20.09
2022-10-17T19:34:18.063Z,18.68
2022-10-17T19:35:20.427Z,19.46
2022-10-17T19:36:22.821Z,19.55
2022-10-17T19:37:25.174Z,18.34
2022-10-17T19:38:27.537Z,18.09
2022-10-17T19:39:29.906Z,16.56
2022-10-17T19:40:32.268Z,19.75
2022-10-17T19:41:34.710Z,17.72
2022-10-17T19:42:37.171Z,17.50
2022-10-17T19:43:39.533Z,17.49
2022-10-17T19:44:41.896Z,16.45
2022-10-17T19:45:44.257Z,18.52
2022-10-17T19:46:46.908Z,17.73
2022-10-17T19:47:49.637Z,17.06
2022-10-17T19:48:52.002Z,18.36
2022-10-17T19:49:54.563Z,18.52
2022-10-17T19:50:57.132Z,17.50
2022-10-17T19:51:59.565Z,16.91
2022-10-17T19:53:01.981Z,17.23
2022-10-17T19:54:04.343Z,18.18
2022-10-17T19:55:06.702Z,16.89
2022-10-17T19:56:09.165Z,16.95
2022-10-17T19:57:11.798Z,17.25
2022-10-17T19:58:14.328Z,18.46
2022-10-17T19:59:16.719Z,18.12
2022-10-17T20:00:19.651Z,18.54
2022-10-17T20:01:22.051Z,17.76
2022-10-17T20:02:24.617Z,18.75
2022-10-17T20:03:27.081Z,17.36
2022-10-17T20:04:29.449Z,16.83
2022-10-17T20:05:31.806Z,18.86
2022-10-17T20:06:34.245Z,17.29
2022-10-17T20:07:36.635Z,15.79
2022-10-17T20:08:40.010Z,17.26
2022-10-17T20:09:42.372Z,17.44
2022-10-17T20:10:44.734Z,21.41
2022-10-17T20:11:47.095Z,19.84
2022-10-17T20:12:49.505Z,17.72
2022-10-17T20:13:51.862Z,17.73
2022-10-17T20:14:54.225Z,19.56
2022-10-17T20:15:56.586Z,22.33
2022-10-17T20:16:58.949Z,23.71
2022-10-17T20:18:01.439Z,24.28
2022-10-17T20:19:03.797Z,25.70
2022-10-17T20:20:08.693Z,24.26
2022-10-17T20:21:10.842Z,20.92
2022-10-17T20:22:13.309Z,20.61
2022-10-17T20:23:15.708Z,18.77
2022-10-17T20:24:18.073Z,16.79
2022-10-17T20:25:23.547Z,19.51
2022-10-17T20:26:37.628Z,17.89
2022-10-17T20:27:30.916Z,18.66
2022-10-17T20:28:33.340Z,18.40
2022-10-17T20:29:35.861Z,21.63
2022-10-17T20:30:38.534Z,22.63
2022-10-17T20:31:40.987Z,21.95
2022-10-17T20:32:43.386Z,20.73
2022-10-17T20:33:45.840Z,20.99
2022-10-17T20:34:48.196Z,19.01
2022-10-17T20:35:50.562Z,19.25
2022-10-17T20:36:52.927Z,18.53
2022-10-17T20:37:55.290Z,20.03
2022-10-17T20:38:57.683Z,18.41
2022-10-17T20:40:22.722Z,18.44
2022-10-17T20:41:04.347Z,17.40
2022-10-17T20:42:06.707Z,19.45
2022-10-17T20:43:09.069Z,16.89
2022-10-17T20:44:11.507Z,16.79
2022-10-17T20:45:13.944Z,16.21
2022-10-17T20:46:29.352Z,17.69
2022-10-17T20:47:32.882Z,17.37
2022-10-17T20:48:24.863Z,16.51
2022-10-17T20:49:27.270Z,19.71
2022-10-17T20:50:29.632Z,17.40
2022-10-17T20:51:31.993Z,16.33
2022-10-17T20:52:34.366Z,17.41
2022-10-17T20:53:37.711Z,17.73
2022-10-17T20:54:40.574Z,17.42
2022-10-17T20:55:43.037Z,18.95